createdAt,value
2023-05-21T00:00:39.747Z,0.0000
2023-05-21T00:01:42.453Z,0.0000
2023-05-21T00:02:44.924Z,0.0000
2023-05-21T00:03:46.911Z,0.0000
2023-05-21T00:04:48.698Z,0.0000
2023-05-21T00:06:51.869Z,0.0000
2023-05-21T00:07:53.534Z,0.0000
2023-05-21T00:08:55.210Z,0.0000
2023-05-21T00:09:57.520Z,0.0000
2023-05-21T00:10:59.845Z,0.0000
2023-05-21T00:12:02.217Z,0.0000
2023-05-21T00:13:04.735Z,0.0000
2023-05-21T00:14:06.405Z,0.0000
2023-05-21T00:15:08.290Z,0.0000
2023-05-21T00:16:10.164Z,0.0000
2023-05-21T00:17:12.418Z,0.0000
2023-05-21T00:18:14.760Z,0.0000
2023-05-21T00:19:17.957Z,0.0000
2023-05-21T00:26:29.185Z,0.0000
2023-05-21T00:27:31.702Z,0.0000
2023-05-21T00:28:33.355Z,0.0000
2023-05-21T00:29:35.010Z,0.0000
2023-05-21T00:30:37.829Z,0.0000
2023-05-21T00:31:39.532Z,0.0000
2023-05-21T00:32:41.240Z,0.0000
2023-05-21T00:33:44.009Z,0.0000
2023-05-21T00:35:44.367Z,0.0000
2023-05-21T00:36:46.019Z,0.0000
2023-05-21T00:37:47.688Z,0.0000
2023-05-21T00:38:51.037Z,0.0000
2023-05-21T00:40:52.763Z,0.0000
2023-05-21T00:41:54.847Z,0.0000
2023-05-21T00:43:58.322Z,0.0000
2023-05-21T00:45:00.008Z,0.0000
2023-05-21T00:48:04.620Z,0.0000
2023-05-21T00:49:06.301Z,0.0000
2023-05-21T00:50:07.953Z,0.0000
2023-05-21T00:51:09.591Z,0.0000
2023-05-21T00:52:10.164Z,0.0000
2023-05-21T00:53:11.807Z,0.0000
2023-05-21T00:54:14.546Z,0.0000
2023-05-21T00:55:16.203Z,0.0000
2023-05-21T00:56:17.849Z,0.0000
2023-05-21T00:57:19.518Z,0.0000
2023-05-21T00:58:21.154Z,0.0000
2023-05-21T00:59:22.833Z,0.0000
2023-05-21T01:00:24.506Z,0.0000
2023-05-21T01:01:26.182Z,0.0000
2023-05-21T01:02:27.823Z,0.0000
2023-05-21T01:03:29.611Z,0.0000
2023-05-21T01:04:31.302Z,0.0000
2023-05-21T01:05:33.089Z,0.0000
2023-05-21T01:06:34.837Z,0.0000
2023-05-21T01:07:36.510Z,0.0000
2023-05-21T01:08:38.193Z,0.0000
2023-05-21T01:10:41.318Z,0.0000
2023-05-21T01:11:44.157Z,0.0000
2023-05-21T01:20:57.144Z,1.8847
2023-05-21T01:21:59.485Z,1.8578
2023-05-21T01:23:01.787Z,1.8579
2023-05-21T01:24:04.210Z,2.2081
2023-05-21T01:25:05.952Z,2.3198
2023-05-21T01:26:08.278Z,2.2277
2023-05-21T01:27:10.676Z,2.2653
2023-05-21T01:28:12.955Z,2.0314
2023-05-21T01:29:14.646Z,2.0916
2023-05-21T01:30:16.263Z,1.7617
2023-05-21T01:31:18.597Z,2.4067
2023-05-21T01:32:20.219Z,2.0921
2023-05-21T01:34:23.408Z,1.7661
2023-05-21T01:35:25.152Z,1.8177
2023-05-21T01:36:26.850Z,1.8785
2023-05-21T01:37:29.131Z,2.2313
2023-05-21T01:38:31.438Z,2.2067
2023-05-21T01:39:33.741Z,2.6172
2023-05-21T01:40:36.040Z,2.6137
2023-05-21T01:41:37.674Z,2.8475
2023-05-21T01:42:40.266Z,1.9975
2023-05-21T01:43:42.647Z,2.1385
2023-05-21T01:44:45.262Z,1.9130
2023-05-21T01:45:47.704Z,1.7950
2023-05-21T01:46:49.390Z,2.1449
2023-05-21T01:47:51.888Z,2.2286
2023-05-21T01:48:53.517Z,2.0874
2023-05-21T01:49:56.053Z,2.3393
2023-05-21T01:50:58.448Z,2.1508
2023-05-21T01:52:00.777Z,1.2189
2023-05-21T01:53:03.199Z,1.7418
2023-05-21T01:54:05.190Z,0.9273
2023-05-21T01:55:07.575Z,1.0520
2023-05-21T01:56:09.204Z,0.8125
2023-05-21T01:57:11.162Z,0.0000
2023-05-21T01:59:14.335Z,0.0000
2023-05-21T02:00:15.996Z,0.0000
2023-05-21T02:01:17.762Z,0.0000
2023-05-21T02:02:20.158Z,0.0000
2023-05-21T02:03:22.748Z,0.0000
2023-05-21T02:04:25.089Z,0.0000
2023-05-21T02:05:27.065Z,0.0000
2023-05-21T02:07:30.903Z,0.0000
2023-05-21T02:08:32.555Z,0.0000
2023-05-21T02:09:34.251Z,0.0000
2023-05-21T02:11:38.223Z,0.2936
2023-05-21T02:12:40.933Z,2.0341
2023-05-21T02:13:42.577Z,1.2701
2023-05-21T02:14:44.825Z,1.2920
2023-05-21T02:15:47.086Z,1.2213
2023-05-21T02:16:49.448Z,1.2205
2023-05-21T02:17:51.194Z,1.7424
2023-05-21T02:18:52.852Z,1.2310
2023-05-21T02:19:54.470Z,1.0574
2023-05-21T02:20:56.117Z,1.4679
2023-05-21T02:21:57.816Z,1.5256
2023-05-21T02:22:59.421Z,1.1749
2023-05-21T02:24:02.399Z,2.3491
2023-05-21T02:25:07.226Z,2.0461
2023-05-21T02:32:13.077Z,0.9398
2023-05-21T02:33:14.779Z,0.9384
2023-05-21T02:34:16.451Z,1.3510
2023-05-21T02:35:18.097Z,2.2883
2023-05-21T02:36:19.768Z,2.1726
2023-05-21T02:37:21.454Z,1.2914
2023-05-21T02:38:23.240Z,0.8802
2023-05-21T02:39:24.940Z,1.1129
2023-05-21T02:40:26.589Z,1.0569
2023-05-21T02:41:28.241Z,0.2937
2023-05-21T02:42:30.532Z,0.0587
2023-05-21T02:43:32.874Z,0.0000
2023-05-21T02:44:34.551Z,0.0000
2023-05-21T02:45:36.456Z,0.0000
2023-05-21T02:46:38.830Z,0.0000
2023-05-21T02:47:41.448Z,1.0460
2023-05-21T02:48:43.848Z,1.5592
2023-05-21T02:49:46.573Z,1.8589
2023-05-21T02:50:48.194Z,1.6161
2023-05-21T02:51:49.859Z,0.7045
2023-05-21T02:52:51.519Z,1.0570
2023-05-21T02:53:53.440Z,0.8767
2023-05-21T02:54:55.101Z,0.9986
2023-05-21T02:56:59.738Z,1.2946
2023-05-21T03:03:06.843Z,2.0012
2023-05-21T03:04:09.083Z,1.6249
2023-05-21T03:05:10.717Z,1.6289
2023-05-21T03:06:12.367Z,1.2330
2023-05-21T03:08:16.162Z,1.6481
2023-05-21T03:09:17.867Z,1.6270
2023-05-21T03:10:19.553Z,1.8188
2023-05-21T03:12:23.970Z,1.9867
2023-05-21T03:13:25.635Z,1.7390
2023-05-21T03:14:27.309Z,1.4090
2023-05-21T03:15:28.952Z,1.4674
2023-05-21T03:16:30.606Z,1.4678
2023-05-21T03:18:34.697Z,1.5895
2023-05-21T03:21:39.409Z,0.4118
2023-05-21T03:22:42.406Z,0.0000
2023-05-21T03:25:45.051Z,0.0000
2023-05-21T03:26:47.388Z,0.0000
2023-05-21T03:27:49.752Z,0.0000
2023-05-21T03:28:51.403Z,0.0000
2023-05-21T03:29:53.102Z,0.0000
2023-05-21T03:30:54.897Z,0.0000
2023-05-21T03:31:56.714Z,0.0000
2023-05-21T03:32:58.457Z,0.0000
2023-05-21T03:34:00.697Z,0.0000
2023-05-21T03:35:02.389Z,0.0000
2023-05-21T03:36:04.082Z,0.0000
2023-05-21T03:38:07.331Z,0.0000
2023-05-21T03:39:09.061Z,0.0000
2023-05-21T03:40:10.763Z,0.0000
2023-05-21T03:41:12.467Z,0.0000
2023-05-21T03:43:15.698Z,0.0000
2023-05-21T03:44:17.421Z,0.0000
2023-05-21T03:45:20.243Z,0.0000
2023-05-21T03:55:35.691Z,0.0000
2023-05-21T03:56:37.475Z,0.1156
2023-05-21T03:57:39.147Z,1.3500
2023-05-21T03:58:40.860Z,0.8803
2023-05-21T03:59:42.510Z,0.7629
2023-05-21T04:00:44.198Z,0.8804
2023-05-21T04:01:45.890Z,0.9390
2023-05-21T04:02:47.688Z,0.9967
2023-05-21T04:03:50.214Z,0.9372
2023-05-21T04:04:52.220Z,1.1543
2023-05-21T04:05:53.910Z,1.1730
2023-05-21T04:06:55.565Z,1.5256
2023-05-21T04:07:57.838Z,1.5267
2023-05-21T04:09:00.359Z,1.2788
2023-05-21T04:10:03.175Z,1.3813
2023-05-21T04:11:04.873Z,0.9858
2023-05-21T04:12:06.574Z,0.2934
2023-05-21T04:13:08.260Z,0.0000
2023-05-21T04:15:11.795Z,0.0000
2023-05-21T04:16:13.550Z,0.0000
2023-05-21T04:18:16.797Z,0.0000
2023-05-21T04:19:18.609Z,0.0000
2023-05-21T04:20:20.594Z,0.0000
2023-05-21T04:22:24.524Z,0.0000
2023-05-21T04:23:27.186Z,0.0000
2023-05-21T04:24:28.909Z,0.0000
2023-05-21T04:25:30.654Z,0.0000
2023-05-21T04:26:32.336Z,0.0000
2023-05-21T04:27:34.806Z,0.0000
2023-05-21T04:28:37.108Z,0.0000
2023-05-21T04:29:38.809Z,0.0000
2023-05-21T04:30:40.516Z,0.0000
2023-05-21T04:31:42.964Z,0.0000
2023-05-21T04:32:44.757Z,0.0000
2023-05-21T04:33:46.420Z,0.0000
2023-05-21T04:34:48.128Z,0.0000
2023-05-21T04:35:50.899Z,0.0000
2023-05-21T04:44:03.968Z,1.5883
2023-05-21T04:45:06.360Z,1.4525
2023-05-21T04:46:08.034Z,1.6248
2023-05-21T04:47:09.784Z,0.9390
2023-05-21T04:48:12.323Z,1.8169
2023-05-21T04:49:14.054Z,0.4632
2023-05-21T04:50:15.706Z,0.0000
2023-05-21T04:51:18.060Z,0.0587
2023-05-21T04:52:19.759Z,0.0000
2023-05-21T04:53:21.461Z,0.0000
2023-05-21T04:54:23.170Z,0.0000
2023-05-21T04:55:25.665Z,0.0000
2023-05-21T04:56:28.031Z,0.0000
2023-05-21T04:57:29.730Z,0.0000
2023-05-21T04:58:31.446Z,0.0000
2023-05-21T04:59:33.759Z,0.0000
2023-05-21T05:00:36.082Z,0.0000
2023-05-21T05:01:37.775Z,0.0000
2023-05-21T05:03:41.759Z,0.0000
2023-05-21T05:04:44.135Z,0.0000
2023-05-21T05:05:45.843Z,0.0000
2023-05-21T05:06:47.543Z,0.0000
2023-05-21T05:07:49.519Z,0.0000
2023-05-21T05:08:51.246Z,0.0000
2023-05-21T05:09:52.951Z,0.0000
2023-05-21T05:11:56.823Z,0.0000
2023-05-21T05:12:58.994Z,0.0000
2023-05-21T05:14:00.696Z,0.0000
2023-05-21T05:15:02.774Z,0.0000
2023-05-21T05:16:04.603Z,1.2817
2023-05-21T05:17:06.318Z,0.5860
2023-05-21T05:20:11.866Z,0.0000
2023-05-21T05:21:14.350Z,0.0000
2023-05-21T05:22:16.654Z,0.0000
2023-05-21T05:24:20.651Z,0.0000
2023-05-21T05:25:22.352Z,1.2187
2023-05-21T05:26:24.059Z,0.6456
2023-05-21T05:28:27.971Z,1.1769
2023-05-21T05:29:30.274Z,0.0580
2023-05-21T05:30:32.002Z,1.4525
2023-05-21T05:33:37.846Z,0.0000
2023-05-21T05:34:40.211Z,0.0000
2023-05-21T05:35:42.566Z,0.0000
2023-05-21T05:36:45.007Z,0.0000
2023-05-21T05:37:46.741Z,0.0000
2023-05-21T05:39:50.630Z,0.0000
2023-05-21T05:40:52.987Z,0.0000
2023-05-21T05:41:54.860Z,0.0000
2023-05-21T05:42:56.783Z,0.0000
2023-05-21T05:43:58.542Z,0.0000
2023-05-21T05:45:01.655Z,0.0000
2023-05-21T05:46:00.645Z,0.0000
2023-05-21T05:47:02.581Z,0.7011
2023-05-21T05:48:05.624Z,2.0994
2023-05-21T05:49:07.988Z,1.3865
2023-05-21T05:50:09.731Z,1.1022
2023-05-21T05:51:12.110Z,1.4078
2023-05-21T05:52:14.535Z,1.1603
2023-05-21T05:53:16.285Z,0.5219
2023-05-21T05:55:20.519Z,0.0000
2023-05-21T05:56:23.101Z,1.2128
2023-05-21T05:57:26.039Z,2.7274
2023-05-21T06:04:37.275Z,0.0000
2023-05-21T06:05:39.937Z,0.0000
2023-05-21T06:07:41.571Z,1.1727
2023-05-21T06:08:43.441Z,2.1960
2023-05-21T06:09:45.857Z,2.1001
2023-05-21T06:10:48.411Z,2.3238
2023-05-21T06:11:51.052Z,2.2080
2023-05-21T06:12:53.453Z,0.9820
2023-05-21T06:13:55.192Z,1.1024
2023-05-21T06:14:56.917Z,1.2897
2023-05-21T06:15:59.310Z,1.6423
2023-05-21T06:17:00.997Z,2.6704
2023-05-21T06:20:05.052Z,1.7568
2023-05-21T06:21:07.589Z,1.7361
2023-05-21T06:22:10.019Z,0.2904
2023-05-21T06:23:11.754Z,0.3479
2023-05-21T06:24:14.105Z,0.0000
2023-05-21T06:25:14.289Z,0.0000
2023-05-21T06:32:24.803Z,0.0000
2023-05-21T06:33:27.743Z,0.0000
2023-05-21T06:34:27.672Z,0.0000
2023-05-21T06:36:31.660Z,3.0549
2023-05-21T06:37:33.392Z,2.6122
2023-05-21T06:38:35.332Z,2.6901
2023-05-21T06:39:37.275Z,1.3438
2023-05-21T06:40:39.792Z,1.2866
2023-05-21T06:41:42.348Z,1.4506
2023-05-21T06:42:44.083Z,3.5317
2023-05-21T06:43:46.321Z,2.4419
2023-05-21T06:44:49.214Z,3.0409
2023-05-21T06:45:50.985Z,1.1546
2023-05-21T06:46:52.695Z,0.1760
2023-05-21T06:47:54.468Z,1.7585
2023-05-21T06:48:56.890Z,0.7036
2023-05-21T06:49:59.213Z,0.4060
2023-05-21T06:51:01.598Z,1.1030
2023-05-21T06:52:03.365Z,0.9867
2023-05-21T06:54:07.416Z,2.8219
2023-05-21T06:55:09.167Z,2.9030
2023-05-21T06:56:11.070Z,0.5260
2023-05-21T06:57:12.820Z,1.0556
2023-05-21T06:59:16.991Z,1.8234
2023-05-21T07:02:20.874Z,0.4115
2023-05-21T07:03:21.459Z,0.4781
2023-05-21T07:10:32.031Z,3.7143
2023-05-21T07:12:33.582Z,2.6386
2023-05-21T07:13:35.916Z,3.4204
2023-05-21T07:14:38.477Z,2.0851
2023-05-21T07:15:40.218Z,3.0168
2023-05-21T07:16:42.011Z,2.8734
2023-05-21T07:17:43.779Z,3.6905
2023-05-21T07:18:46.224Z,0.4101
2023-05-21T07:19:48.289Z,1.8457
2023-05-21T07:21:52.480Z,4.3371
2023-05-21T07:22:55.053Z,2.7796
2023-05-21T07:23:57.616Z,0.5207
2023-05-21T07:24:59.338Z,2.1467
2023-05-21T07:26:01.219Z,3.1599
2023-05-21T07:27:08.766Z,1.4619
2023-05-21T07:28:06.806Z,3.5418
2023-05-21T07:37:21.512Z,2.9983
2023-05-21T07:38:23.233Z,3.2250
2023-05-21T07:39:25.115Z,3.3324
2023-05-21T07:40:27.111Z,1.4600
2023-05-21T07:41:29.272Z,3.0868
2023-05-21T07:42:31.031Z,0.4105
2023-05-21T07:43:32.768Z,3.9280
2023-05-21T07:44:34.654Z,2.5732
2023-05-21T07:45:37.404Z,4.5030
2023-05-21T07:46:38.532Z,3.9611
2023-05-21T07:48:40.104Z,0.4692
2023-05-21T07:49:40.366Z,1.0821
2023-05-21T07:50:40.241Z,0.9052
2023-05-21T07:51:42.857Z,4.9712
2023-05-21T07:52:45.426Z,3.1813
2023-05-21T07:53:47.899Z,2.0855
2023-05-21T07:54:49.908Z,4.1032
2023-05-21T07:55:51.790Z,1.7009
2023-05-21T07:58:56.678Z,4.8196
2023-05-21T08:01:01.191Z,2.6888
2023-05-21T08:02:03.536Z,4.3959
2023-05-21T08:03:05.310Z,4.0661
2023-05-21T08:04:07.359Z,5.1399
2023-05-21T08:05:10.817Z,4.2378
2023-05-21T08:06:11.348Z,3.0239
2023-05-21T08:07:13.605Z,3.5959
2023-05-21T08:08:16.210Z,4.9920
2023-05-21T08:09:18.151Z,3.8116
2023-05-21T08:11:22.589Z,2.5747
2023-05-21T08:12:24.332Z,0.8119
2023-05-21T08:13:26.793Z,3.1882
2023-05-21T08:14:28.709Z,1.2862
2023-05-21T08:16:33.512Z,0.0000
2023-05-21T08:17:35.474Z,3.0641
2023-05-21T08:18:37.727Z,1.9203
2023-05-21T08:19:40.145Z,1.5071
2023-05-21T08:20:42.926Z,0.5857
2023-05-21T08:24:48.907Z,3.0851
2023-05-21T08:25:51.727Z,2.6058
2023-05-21T08:27:56.081Z,1.7470
2023-05-21T08:28:58.411Z,2.0238
2023-05-21T08:30:00.850Z,3.9471
2023-05-21T08:31:02.568Z,3.5975
2023-05-21T08:32:04.318Z,2.2867
2023-05-21T08:33:06.786Z,5.9220
2023-05-21T08:34:08.537Z,3.0137
2023-05-21T08:35:10.258Z,5.2768
2023-05-21T08:36:12.076Z,1.9916
2023-05-21T08:37:14.081Z,4.9655
2023-05-21T08:38:16.468Z,4.1009
2023-05-21T08:39:18.919Z,1.9740
2023-05-21T08:40:21.239Z,0.0579
2023-05-21T08:41:22.950Z,0.4650
2023-05-21T08:42:35.742Z,3.3992
2023-05-21T08:44:31.184Z,2.0571
2023-05-21T08:50:38.382Z,3.2922
2023-05-21T08:53:41.227Z,3.6438
2023-05-21T08:54:42.942Z,3.0177
2023-05-21T08:55:44.677Z,1.4663
2023-05-21T08:56:47.154Z,2.4628
2023-05-21T08:58:07.757Z,4.2283
2023-05-21T08:58:50.599Z,3.4971
2023-05-21T08:59:53.019Z,4.1222
2023-05-21T09:00:55.441Z,4.8116
2023-05-21T09:01:57.271Z,5.2849
2023-05-21T09:02:59.980Z,2.9758
2023-05-21T09:04:16.155Z,6.1287
2023-05-21T09:05:04.387Z,6.7689
2023-05-21T09:06:06.145Z,2.7534
2023-05-21T09:07:08.605Z,0.2345
2023-05-21T09:08:11.390Z,0.4638
2023-05-21T09:09:13.108Z,1.3265
2023-05-21T09:12:19.452Z,2.7980
2023-05-21T09:13:21.849Z,1.0984
2023-05-21T09:14:23.585Z,1.4502
2023-05-21T09:16:27.575Z,3.7030
2023-05-21T09:17:30.093Z,1.8570
2023-05-21T09:18:31.800Z,0.6950
2023-05-21T09:19:33.711Z,1.7565
2023-05-21T09:20:36.545Z,3.2800
2023-05-21T09:24:40.701Z,1.8714
2023-05-21T09:25:42.468Z,3.5704
2023-05-21T09:26:45.133Z,6.0949
2023-05-21T09:27:45.104Z,4.9918
2023-05-21T09:28:47.522Z,6.4375
2023-05-21T09:29:49.260Z,4.2906
2023-05-21T09:31:00.060Z,7.3899
2023-05-21T09:37:06.443Z,2.2329
2023-05-21T09:41:09.789Z,0.5289
2023-05-21T09:42:11.987Z,0.7021
2023-05-21T09:44:15.754Z,4.1143
2023-05-21T09:45:17.712Z,5.0070
2023-05-21T09:46:19.482Z,4.1480
2023-05-21T09:48:22.794Z,2.7040
2023-05-21T09:49:26.212Z,4.1045
2023-05-21T09:53:31.143Z,3.0560
2023-05-21T09:54:32.864Z,4.6749
2023-05-21T09:55:34.622Z,4.2218
2023-05-21T09:56:36.464Z,3.4006
2023-05-21T09:57:38.174Z,4.9793
2023-05-21T09:58:39.953Z,6.4490
2023-05-21T09:59:41.703Z,8.2625
2023-05-21T10:00:43.461Z,6.8010
2023-05-21T10:02:47.585Z,4.2311
2023-05-21T10:03:50.739Z,4.5157
2023-05-21T10:04:50.474Z,4.5541
2023-05-21T10:06:54.399Z,1.8801
2023-05-21T10:07:56.735Z,1.5100
2023-05-21T10:08:59.085Z,4.5892
2023-05-21T10:10:00.825Z,2.4960
2023-05-21T10:11:02.687Z,0.6448
2023-05-21T10:12:05.467Z,0.3495
2023-05-21T10:13:07.897Z,0.0000
2023-05-21T10:14:09.649Z,5.4484
2023-05-21T10:15:11.374Z,3.9878
2023-05-21T10:16:13.865Z,2.9898
2023-05-21T10:17:16.382Z,4.9830
2023-05-21T10:18:18.708Z,3.4755
2023-05-21T10:19:21.220Z,5.1672
2023-05-21T10:20:22.970Z,3.3004
2023-05-21T10:21:25.271Z,4.8691
2023-05-21T10:22:27.708Z,4.5903
2023-05-21T10:23:29.529Z,1.2747
2023-05-21T10:24:31.248Z,0.2932
2023-05-21T10:26:35.340Z,2.8195
2023-05-21T10:27:37.944Z,6.1416
2023-05-21T10:28:40.407Z,2.6603
2023-05-21T10:29:42.615Z,4.8114
2023-05-21T10:30:45.135Z,6.6213
2023-05-21T10:31:47.573Z,3.0165
2023-05-21T10:32:50.372Z,0.6931
2023-05-21T10:34:04.982Z,2.2534
2023-05-21T10:35:55.146Z,3.3487
2023-05-21T10:36:57.969Z,6.4890
2023-05-21T10:39:20.814Z,3.1742
2023-05-21T10:40:01.081Z,1.4617
2023-05-21T10:41:02.809Z,2.9021
2023-05-21T10:42:05.191Z,3.1059
2023-05-21T10:43:07.527Z,2.0908
2023-05-21T10:44:10.067Z,1.1610
2023-05-21T10:45:11.834Z,2.5476
2023-05-21T10:46:13.611Z,3.6938
2023-05-21T10:47:16.069Z,4.2140
2023-05-21T10:48:18.970Z,3.8299
2023-05-21T10:51:21.205Z,0.0000
2023-05-21T10:52:22.960Z,0.0000
2023-05-21T10:53:24.826Z,0.0000
2023-05-21T10:54:26.669Z,0.0585
2023-05-21T10:55:28.965Z,0.0000
2023-05-21T10:56:30.673Z,1.6860
2023-05-21T10:57:33.067Z,4.3972
2023-05-21T10:58:34.847Z,5.3958
2023-05-21T10:59:36.609Z,6.6240
2023-05-21T11:00:38.464Z,5.2200
2023-05-21T11:03:44.880Z,2.5097
2023-05-21T11:04:46.637Z,1.0411
2023-05-21T11:05:48.466Z,2.5789
2023-05-21T11:06:50.231Z,5.5648
2023-05-21T11:07:52.126Z,2.8693
2023-05-21T11:08:55.362Z,1.9326
2023-05-21T11:09:54.714Z,2.5576
2023-05-21T11:10:58.564Z,2.2267
2023-05-21T11:11:58.216Z,3.6188
2023-05-21T11:13:00.601Z,2.6095
2023-05-21T11:14:03.152Z,2.0875
2023-05-21T11:15:05.455Z,6.1375
2023-05-21T11:17:09.685Z,4.5259
2023-05-21T11:18:12.668Z,5.8535
2023-05-21T11:27:27.550Z,4.1258
2023-05-21T11:28:29.322Z,3.2521
2023-05-21T11:29:31.109Z,6.3903
2023-05-21T11:30:35.238Z,5.2112
2023-05-21T11:31:35.441Z,4.9208
2023-05-21T11:32:37.170Z,5.2778
2023-05-21T11:33:38.910Z,3.2240
2023-05-21T11:34:40.657Z,3.4010
2023-05-21T11:36:44.838Z,2.0540
2023-05-21T11:37:47.233Z,4.6934
2023-05-21T11:38:49.684Z,2.9585
2023-05-21T11:39:52.744Z,1.1018
2023-05-21T11:40:52.862Z,2.8219
2023-05-21T11:41:53.409Z,2.4084
2023-05-21T11:44:57.199Z,0.8230
2023-05-21T11:49:43.362Z,2.3106
2023-05-21T11:50:44.248Z,4.7633
2023-05-21T11:51:46.206Z,4.5081
2023-05-21T11:52:48.871Z,3.5644
2023-05-21T11:53:51.512Z,3.8660
2023-05-21T11:54:53.344Z,2.6694
2023-05-21T11:55:55.278Z,3.7952
2023-05-21T11:56:57.272Z,1.9296
2023-05-21T11:57:59.682Z,4.5078
2023-05-21T11:59:00.629Z,3.9123
2023-05-21T12:00:00.835Z,2.2316
2023-05-21T12:01:03.672Z,5.3545
2023-05-21T12:02:06.262Z,3.4706
2023-05-21T12:03:08.993Z,0.8096
2023-05-21T12:04:10.852Z,3.9907
2023-05-21T12:05:13.338Z,4.8465
2023-05-21T12:07:17.659Z,3.2896
2023-05-21T12:12:24.204Z,2.5021
2023-05-21T12:13:26.572Z,3.8684
2023-05-21T12:18:35.482Z,5.4040
2023-05-21T12:20:37.316Z,1.4684
2023-05-21T12:22:38.493Z,2.6929
2023-05-21T12:25:44.153Z,6.2213
2023-05-21T12:26:46.156Z,3.4457
2023-05-21T12:27:48.106Z,2.3372
2023-05-21T12:28:48.186Z,3.7962
2023-05-21T12:29:50.016Z,4.5088
2023-05-21T12:30:52.304Z,3.7187
2023-05-21T12:31:54.265Z,2.1051
2023-05-21T12:32:57.203Z,1.9108
2023-05-21T12:33:59.598Z,2.3855
2023-05-21T12:35:02.232Z,1.3288
2023-05-21T12:36:04.762Z,2.6623
2023-05-21T12:37:07.171Z,3.7744
2023-05-21T12:43:15.219Z,6.7434
2023-05-21T12:44:17.231Z,4.2612
2023-05-21T12:45:19.242Z,2.9809
2023-05-21T12:46:21.763Z,3.3293
2023-05-21T12:47:24.368Z,1.5614
2023-05-21T12:48:26.946Z,1.5092
2023-05-21T12:49:29.857Z,5.3693
2023-05-21T12:50:30.540Z,4.3320
2023-05-21T12:51:32.981Z,3.7677
2023-05-21T12:52:34.796Z,3.4802
2023-05-21T12:53:36.555Z,0.0586
2023-05-21T12:54:39.688Z,3.6333
2023-05-21T12:58:44.769Z,5.4644
2023-05-21T12:59:47.124Z,5.9761
2023-05-21T13:00:49.499Z,4.4725
2023-05-21T13:01:52.143Z,0.1740
2023-05-21T13:02:54.878Z,1.8491
2023-05-21T13:03:57.638Z,1.6166
2023-05-21T13:04:57.229Z,3.5595
2023-05-21T13:06:00.045Z,5.7266
2023-05-21T13:07:04.849Z,2.7194
2023-05-21T13:08:04.836Z,0.8123
2023-05-21T13:09:06.556Z,1.8565
2023-05-21T13:10:08.324Z,6.1569
2023-05-21T13:11:10.964Z,5.2040
2023-05-21T13:12:12.835Z,6.3192
2023-05-21T13:13:14.612Z,4.0414
2023-05-21T13:14:16.453Z,1.7558
2023-05-21T13:15:18.879Z,3.6343
2023-05-21T13:16:21.648Z,3.0150
2023-05-21T13:24:35.091Z,5.6862
2023-05-21T13:26:36.661Z,1.9898
2023-05-21T13:27:39.177Z,5.0421
2023-05-21T13:28:42.673Z,4.5168
2023-05-21T13:29:42.516Z,5.7655
2023-05-21T13:30:45.019Z,3.8264
2023-05-21T13:31:47.533Z,3.6495
2023-05-21T13:32:49.472Z,1.9684
2023-05-21T13:33:51.454Z,6.5353
2023-05-21T13:35:55.851Z,1.0529
2023-05-21T13:36:58.452Z,4.9104
2023-05-21T13:38:01.054Z,3.3033
2023-05-21T13:39:03.449Z,1.2143
2023-05-21T13:40:05.273Z,0.6385
2023-05-21T13:41:07.688Z,1.9316
2023-05-21T13:42:10.278Z,3.0152
2023-05-21T13:43:12.866Z,3.4116
2023-05-21T13:44:15.374Z,2.4303
2023-05-21T13:45:17.177Z,4.5209
2023-05-21T13:46:19.048Z,2.7517
2023-05-21T13:47:21.374Z,3.4529
2023-05-21T13:48:23.875Z,4.0661
2023-05-21T13:49:26.373Z,3.1255
2023-05-21T13:51:38.806Z,3.8152
2023-05-21T13:52:30.463Z,4.0184
2023-05-21T13:53:32.942Z,1.7360
2023-05-21T13:54:33.721Z,3.4190
2023-05-21T13:55:33.530Z,2.5279
2023-05-21T13:56:35.277Z,1.1711
2023-05-21T13:57:37.959Z,2.3125
2023-05-21T13:58:39.790Z,5.4403
2023-05-21T14:00:44.006Z,1.8784
2023-05-21T14:01:44.535Z,0.8417
2023-05-21T14:02:44.314Z,1.0843
2023-05-21T14:03:46.880Z,3.7564
2023-05-21T14:04:49.559Z,3.6392
2023-05-21T14:05:51.534Z,2.4846
2023-05-21T14:06:53.348Z,4.1015
2023-05-21T14:07:55.935Z,1.1712
2023-05-21T14:10:59.491Z,2.3306
2023-05-21T14:12:01.731Z,1.6986
2023-05-21T14:13:15.370Z,1.8015
2023-05-21T14:14:04.434Z,0.2404
2023-05-21T14:15:06.975Z,4.5792
2023-05-21T14:16:08.810Z,5.3844
2023-05-21T14:18:11.668Z,2.4355
2023-05-21T14:19:15.100Z,5.7228
2023-05-21T14:28:28.786Z,4.3469
2023-05-21T14:29:31.265Z,3.8274
2023-05-21T14:30:33.615Z,2.2011
2023-05-21T14:31:36.108Z,2.8452
2023-05-21T14:33:39.562Z,4.4623
2023-05-21T14:34:41.352Z,2.8129
2023-05-21T14:35:44.404Z,2.7405
2023-05-21T14:39:48.437Z,2.1742
2023-05-21T14:40:51.093Z,2.0504
2023-05-21T14:41:53.751Z,3.3532
2023-05-21T14:42:56.089Z,1.8484
2023-05-21T14:43:58.497Z,1.3940
2023-05-21T14:45:16.816Z,1.7963
2023-05-21T14:47:05.956Z,3.9299
2023-05-21T14:48:08.593Z,4.6795
2023-05-21T14:49:11.532Z,2.5384
2023-05-21T14:55:21.532Z,1.7558
2023-05-21T14:56:23.981Z,2.2615
2023-05-21T14:57:26.456Z,4.2312
2023-05-21T14:59:28.742Z,2.2129
2023-05-21T15:00:32.028Z,0.9848
2023-05-21T15:08:45.557Z,0.2348
2023-05-21T15:12:53.609Z,1.6444
2023-05-21T15:15:57.189Z,1.4077
2023-05-21T15:16:59.679Z,0.8674
2023-05-21T15:18:02.364Z,1.3297
2023-05-21T15:20:04.612Z,0.0000
2023-05-21T15:21:07.082Z,1.5645
2023-05-21T15:22:09.547Z,1.1592
2023-05-21T15:23:17.290Z,0.4045
2023-05-21T15:24:14.171Z,1.3290
2023-05-21T15:25:18.316Z,1.6347
2023-05-21T15:26:17.981Z,1.5388
2023-05-21T15:27:20.941Z,1.4428
2023-05-21T15:29:22.515Z,0.7630
2023-05-21T15:30:25.038Z,1.1590
2023-05-21T15:31:27.131Z,2.0195
2023-05-21T15:32:29.152Z,1.2842
2023-05-21T15:33:31.677Z,2.9275
2023-05-21T15:34:33.358Z,0.1761
2023-05-21T15:35:35.349Z,2.8371
2023-05-21T15:36:37.378Z,4.4204
2023-05-21T15:37:39.231Z,2.8681
2023-05-21T15:38:41.564Z,2.5201
2023-05-21T15:39:44.137Z,3.3106
2023-05-21T15:42:48.530Z,1.2697
2023-05-21T15:43:50.989Z,2.0283
2023-05-21T15:44:52.861Z,2.4904
2023-05-21T15:46:56.651Z,5.8109
2023-05-21T15:47:58.472Z,4.7448
2023-05-21T15:49:01.601Z,4.5102
2023-05-21T15:51:02.280Z,3.7582
2023-05-21T15:52:04.408Z,2.0435
2023-05-21T15:53:06.277Z,1.5785
2023-05-21T15:54:19.872Z,1.6953
2023-05-21T15:55:11.161Z,3.1911
2023-05-21T15:56:12.950Z,4.5229
2023-05-21T15:57:14.800Z,5.8587
2023-05-21T15:58:39.853Z,4.8416
2023-05-21T16:00:21.612Z,2.4668
2023-05-21T16:01:23.679Z,4.6243
2023-05-21T16:02:25.601Z,4.8589
2023-05-21T16:03:27.478Z,6.2518
2023-05-21T16:04:29.834Z,2.0487
2023-05-21T16:05:31.609Z,2.3815
2023-05-21T16:06:33.438Z,2.4012
2023-05-21T16:07:37.967Z,1.4641
2023-05-21T16:08:37.999Z,4.4241
2023-05-21T16:09:39.776Z,4.1797
2023-05-21T16:10:41.643Z,3.7472
2023-05-21T16:11:44.041Z,5.2708
2023-05-21T16:12:46.084Z,3.2948
2023-05-21T16:13:48.598Z,4.3915
2023-05-21T16:14:51.048Z,3.7661
2023-05-21T16:15:52.859Z,2.9554
2023-05-21T16:16:55.449Z,2.8120
2023-05-21T16:17:58.075Z,5.4948
2023-05-21T16:19:00.517Z,3.9304
2023-05-21T16:20:03.181Z,2.5486
2023-05-21T16:21:05.093Z,0.9832
2023-05-21T16:22:07.864Z,0.1170
2023-05-21T16:23:08.274Z,0.8255
2023-05-21T16:24:10.079Z,1.3469
2023-05-21T16:25:11.891Z,2.8707
2023-05-21T16:26:13.968Z,2.1089
2023-05-21T16:27:16.971Z,1.4589
2023-05-21T16:29:18.209Z,4.5221
2023-05-21T16:30:20.635Z,3.0761
2023-05-21T16:31:23.346Z,3.0135
2023-05-21T16:32:25.177Z,2.4270
2023-05-21T16:33:27.038Z,2.3386
2023-05-21T16:35:31.188Z,0.9386
2023-05-21T16:36:32.991Z,0.4060
2023-05-21T16:37:35.491Z,0.7613
2023-05-21T16:38:38.237Z,0.0000
2023-05-21T16:39:40.033Z,0.5793
2023-05-21T16:40:41.850Z,1.0541
2023-05-21T16:41:43.627Z,2.4025
2023-05-21T16:42:46.093Z,2.5786
2023-05-21T16:43:48.753Z,2.8968
2023-05-21T16:44:51.234Z,1.6181
2023-05-21T16:45:53.693Z,0.3476
2023-05-21T16:46:55.505Z,0.0000
2023-05-21T16:47:57.410Z,0.0000
2023-05-21T16:48:59.956Z,2.5710
2023-05-21T16:50:02.834Z,2.0772
2023-05-21T16:51:04.608Z,0.9250
2023-05-21T16:52:06.450Z,4.0422
2023-05-21T16:53:08.899Z,2.2843
2023-05-21T16:54:11.422Z,3.1862
2023-05-21T16:55:13.827Z,3.0118
2023-05-21T16:56:16.308Z,0.2319
2023-05-21T16:57:18.119Z,0.4056
2023-05-21T16:58:20.404Z,2.0503
2023-05-21T16:59:22.934Z,1.7407
2023-05-21T17:00:24.728Z,2.0298
2023-05-21T17:01:26.553Z,6.0931
2023-05-21T17:02:28.468Z,3.2793
2023-05-21T17:03:30.974Z,5.3763
2023-05-21T17:04:33.503Z,3.5908
2023-05-21T17:05:35.478Z,1.3327
2023-05-21T17:06:37.796Z,1.4583
2023-05-21T17:07:40.058Z,1.6281